NOAA-Style Climate Reports

Select a Year or Month report
2019: Jan Feb Mar Apr May Jun Jul Aug Sep Oct Nov Dec
2018: Jan Feb Mar Apr May Jun Jul Aug Sep Oct Nov Dec
2017: Jan Feb Mar Apr May Jun Jul Aug Sep Oct Nov Dec
2016: Jan Feb Mar Apr May Jun Jul Aug Sep Oct Nov Dec
2015: Jan Feb Mar Apr May Jun Jul Aug Sep Oct Nov Dec

Report for 2018 November
                   Monthly Climatological Summary for Nov 2018

Name: Gisborne West   City: Poverty Bay   State: New Zealand
Elevation: 23 m  Lat: S 38° 38' 56"   Lon: E 177° 59' 31"

                  Temperature (°C), Rain (mm), Wind Speed (km/h)

                                      Heat  Cool        Avg
    Mean                              Deg   Deg         Wind                 Dom
Day Temp  High   Time   Low    Time   Days  Days  Rain  Speed High   Time    Dir
----------------------------------------------------------------------------------
 1  14.2  14.2   00:00  14.2   00:00   4.1   0.0   0.0   7.2  11.2   00:00     E
 2  14.2  14.2   00:00  14.2   00:00   4.1   0.0   0.0   7.2  11.2   00:00     E
 3  14.2  14.2   00:00  14.2   00:00   4.1   0.0   0.0   7.2  11.2   00:00     E
 4  14.2  14.2   00:00  14.2   00:00   4.1   0.0   0.0   7.2  11.2   00:00     E
 5  14.2  14.2   00:00  14.2   00:00   4.1   0.0   0.0   7.2  11.2   00:00     E
 6  14.2  14.2   00:00  14.2   00:00   4.1   0.0   0.0   7.2  11.2   00:00     E
 7  14.3  17.0   23:05  14.2   00:00   4.1   0.0   0.0   7.2  28.1   23:52     E
 8  21.4  25.0   12:32  16.8   00:44   0.3   3.4   0.3  12.8  54.0   10:33   WNW
 9  22.5  22.5   00:00  22.5   00:00   0.0   4.2   0.0   5.0   8.6   00:00   WNW
10  22.5  22.5   00:00  22.5   00:00   0.0   4.2   0.0   5.0   8.6   00:00   WNW
11  22.5  22.5   00:00  22.5   00:00   0.0   4.2   0.0   5.0   8.6   00:00   WNW
12  22.5  22.5   00:00  22.5   00:00   0.0   4.2   0.0   5.0   8.6   00:00   WNW
13  22.5  22.5   00:00  22.5   00:00   0.0   4.2   0.0   5.0   8.6   00:00   WNW
14  22.5  22.5   00:00  22.5   00:00   0.0   4.2   0.0   5.0   8.6   00:00   WNW
15  22.5  22.5   00:00  22.5   00:00   0.0   4.2   0.0   5.0   8.6   00:00   WNW
16  22.5  22.5   00:00  22.5   00:00   0.0   4.2   0.0   5.0   8.6   00:00   WNW
17  22.5  22.5   00:00  22.5   00:00   0.0   4.2   0.0   5.0   8.6   00:00   WNW
18  22.5  22.5   00:00  22.5   00:00   0.0   4.2   0.0   5.0   8.6   00:00   WNW
19  18.8  22.5   00:00  11.3   23:59   1.6   2.1  16.2   4.4  20.9   19:18   WNW
20  13.3  20.5   11:15   7.5   06:18   5.0   0.0   3.3   4.0  25.6   13:30   ENE
21  14.4  20.8   12:38   7.9   01:13   4.1   0.3   5.1   6.1  39.2   12:42   WNW
22  14.1  20.0   11:04   8.1   05:05   4.3   0.1   7.5   5.2  25.6   14:49   ESE
23  15.7  21.1   10:32  10.4   00:30   3.1   0.5   0.3   4.4  24.5   13:42   ESE
24  18.8  18.8   00:00  18.8   00:00   0.0   0.5   0.0   3.3  22.0   15:14     N
25  18.8  18.8   00:00  18.8   00:00   0.0   0.5   6.3   3.3  18.4   13:34    NE
26  18.8  18.8   00:00  18.8   00:00   0.0   0.5   0.0   2.5   5.0   00:00     N
27  18.8  18.8   00:00  18.8   00:00   0.0   0.5   0.0   2.5   5.0   00:00     N
28  18.8  18.8   00:00  18.8   00:00   0.0   0.5   0.0   2.5   5.0   00:00     N
----------------------------------------------------------------------------------
    18.4  25.0     8     7.5    20    47.1  50.9  39.0   5.4  54.0     8       N

Max >=  27.0:  0
Max <=   0.0:  0
Min <=   0.0:  0
Min <= -18.0:  0
Max Rain: 16.2 on day 19
Days of Rain: 7 (>= 0.2 mm)  5 (>= 2.0 mm)  0 (>= 20.0 mm)
Heat Base: 18.3  Cool Base: 18.3  Method: Integration